createdAt,value
2023-09-16T00:01:30.891Z,14.14
2023-09-16T00:04:25.101Z,14.10
2023-09-16T00:07:15.936Z,14.08
2023-09-16T00:10:09.466Z,14.03
2023-09-16T00:13:02.212Z,14.01
2023-09-16T00:15:55.804Z,13.96
2023-09-16T00:18:48.412Z,13.92
2023-09-16T00:21:41.594Z,13.89
2023-09-16T00:24:33.843Z,13.87
2023-09-16T00:27:26.714Z,13.92
2023-09-16T00:30:19.052Z,13.95
2023-09-16T00:33:11.364Z,13.98
2023-09-16T00:36:03.557Z,13.99
2023-09-16T00:38:55.856Z,14.00
2023-09-16T00:41:34.146Z,14.00
2023-09-16T00:44:26.388Z,13.99
2023-09-16T00:47:18.601Z,13.95
2023-09-16T00:50:14.019Z,13.96
2023-09-16T00:53:07.075Z,13.96
2023-09-16T00:55:59.494Z,13.95
2023-09-16T00:58:51.993Z,13.93
2023-09-16T01:01:51.322Z,13.86
2023-09-16T01:04:44.825Z,13.78
2023-09-16T01:07:38.297Z,13.73
2023-09-16T01:10:30.738Z,13.68
2023-09-16T01:13:23.268Z,13.64
2023-09-16T01:16:23.901Z,13.62
2023-09-16T01:19:31.722Z,13.65
2023-09-16T01:22:24.422Z,13.65
2023-09-16T01:25:17.364Z,13.64
2023-09-16T01:28:09.945Z,13.64
2023-09-16T01:31:04.047Z,13.63
2023-09-16T01:33:58.139Z,13.63
2023-09-16T01:36:54.616Z,13.59
2023-09-16T01:39:50.782Z,13.53
2023-09-16T01:42:43.859Z,13.47
2023-09-16T01:45:44.785Z,13.41
2023-09-16T01:48:51.972Z,13.33
2023-09-16T01:51:44.344Z,13.22
2023-09-16T01:54:37.015Z,13.15
2023-09-16T01:57:29.368Z,13.11
2023-09-16T02:00:21.735Z,13.10
2023-09-16T02:03:13.952Z,13.12
2023-09-16T02:06:07.685Z,13.10
2023-09-16T02:08:59.920Z,13.08
2023-09-16T02:11:52.855Z,13.06
2023-09-16T02:14:45.379Z,13.03
2023-09-16T02:17:37.673Z,12.99
2023-09-16T02:20:29.888Z,12.95
2023-09-16T02:23:23.168Z,12.90
2023-09-16T02:26:15.413Z,12.84
2023-09-16T02:29:07.816Z,12.81
2023-09-16T02:32:00.164Z,12.76
2023-09-16T02:34:52.342Z,12.73
2023-09-16T02:37:44.562Z,12.69
2023-09-16T02:40:40.877Z,12.66
2023-09-16T02:43:33.398Z,12.68
2023-09-16T02:46:25.673Z,12.69
2023-09-16T02:49:18.013Z,12.69
2023-09-16T02:52:10.343Z,12.66
2023-09-16T02:55:02.728Z,12.65
2023-09-16T02:57:55.008Z,12.62
2023-09-16T03:00:48.526Z,12.59
2023-09-16T03:03:41.399Z,12.58
2023-09-16T03:06:33.760Z,12.53
2023-09-16T03:09:25.991Z,12.46
2023-09-16T03:12:18.199Z,12.45
2023-09-16T03:15:12.379Z,12.44
2023-09-16T03:18:08.386Z,12.43
2023-09-16T03:20:53.496Z,12.35
2023-09-16T03:23:46.309Z,12.31
2023-09-16T03:26:38.583Z,12.31
2023-09-16T03:29:21.373Z,12.33
2023-09-16T03:32:13.627Z,12.32
2023-09-16T03:35:06.440Z,12.32
2023-09-16T03:37:58.638Z,12.30
2023-09-16T03:40:51.923Z,12.28
2023-09-16T03:43:44.828Z,12.28
2023-09-16T03:46:38.291Z,12.26
2023-09-16T03:49:30.527Z,12.21
2023-09-16T03:52:22.906Z,12.17
2023-09-16T03:55:15.773Z,12.13
2023-09-16T03:58:08.166Z,12.08
2023-09-16T04:00:53.620Z,12.09
2023-09-16T04:03:45.925Z,12.15
2023-09-16T04:06:38.253Z,12.17
2023-09-16T04:09:30.456Z,12.21
2023-09-16T04:12:22.700Z,12.20
2023-09-16T04:15:15.493Z,12.20
2023-09-16T04:18:08.380Z,12.19
2023-09-16T04:21:00.675Z,12.20
2023-09-16T04:23:52.911Z,12.15
2023-09-16T04:26:45.298Z,12.13
2023-09-16T04:29:37.675Z,12.13
2023-09-16T04:32:29.863Z,12.14
2023-09-16T04:35:22.595Z,12.14
2023-09-16T04:38:14.962Z,12.19
2023-09-16T04:41:07.520Z,12.20
2023-09-16T04:44:00.117Z,12.19
2023-09-16T04:46:54.413Z,12.21
2023-09-16T04:49:47.011Z,12.26
2023-09-16T04:52:39.260Z,12.31
2023-09-16T04:55:31.470Z,12.37
2023-09-16T04:58:23.650Z,12.41
2023-09-16T05:01:16.022Z,12.46
2023-09-16T05:04:08.342Z,12.52
2023-09-16T05:07:00.686Z,12.60
2023-09-16T05:09:52.924Z,12.74
2023-09-16T05:12:45.823Z,12.86
2023-09-16T05:15:38.145Z,13.13
2023-09-16T05:18:30.350Z,13.43
2023-09-16T05:21:22.774Z,14.15
2023-09-16T05:24:14.980Z,15.07
2023-09-16T05:27:08.125Z,16.08
2023-09-16T05:30:03.046Z,16.95
2023-09-16T05:32:55.846Z,17.80
2023-09-16T05:35:48.617Z,17.87
2023-09-16T05:38:40.865Z,18.12
2023-09-16T05:41:33.776Z,18.96
2023-09-16T05:44:26.010Z,19.52
2023-09-16T05:47:18.539Z,18.89
2023-09-16T05:50:11.593Z,18.03
2023-09-16T05:53:05.798Z,17.48
2023-09-16T05:55:56.532Z,17.12
2023-09-16T05:58:48.851Z,16.83
2023-09-16T06:01:41.244Z,16.55
2023-09-16T06:04:34.783Z,16.20
2023-09-16T06:07:27.233Z,15.92
2023-09-16T06:10:19.520Z,15.75
2023-09-16T06:13:11.978Z,15.61
2023-09-16T06:16:05.965Z,15.55
2023-09-16T06:18:56.944Z,15.56
2023-09-16T06:21:50.207Z,15.46
2023-09-16T06:24:42.463Z,15.48
2023-09-16T06:27:34.901Z,15.47
2023-09-16T06:30:27.204Z,15.47
2023-09-16T06:33:19.456Z,15.49
2023-09-16T06:36:11.755Z,15.46
2023-09-16T06:39:06.295Z,15.46
2023-09-16T06:41:58.507Z,15.52
2023-09-16T06:45:10.841Z,15.59
2023-09-16T06:48:03.186Z,15.75
2023-09-16T06:50:55.635Z,15.81
2023-09-16T06:53:47.899Z,15.87
2023-09-16T06:56:40.092Z,15.95
2023-09-16T06:59:32.412Z,16.03
2023-09-16T07:02:24.872Z,16.07
2023-09-16T07:05:17.124Z,16.13
2023-09-16T07:08:09.392Z,16.18
2023-09-16T07:11:01.608Z,16.22
2023-09-16T07:13:54.991Z,16.25
2023-09-16T07:16:47.230Z,16.27
2023-09-16T07:19:39.583Z,16.30
2023-09-16T07:22:31.796Z,16.35
2023-09-16T07:25:24.071Z,16.37
2023-09-16T07:28:16.389Z,16.47
2023-09-16T07:31:08.678Z,16.62
2023-09-16T07:34:01.125Z,16.75
2023-09-16T07:36:44.038Z,16.88
2023-09-16T07:39:16.257Z,16.99
2023-09-16T07:42:08.889Z,17.09
2023-09-16T07:45:01.094Z,17.23
2023-09-16T07:47:54.211Z,17.37
2023-09-16T07:50:46.801Z,17.53
2023-09-16T07:53:38.999Z,17.68
2023-09-16T07:56:32.041Z,17.86
2023-09-16T07:59:24.387Z,18.23
2023-09-16T08:02:16.764Z,19.84
2023-09-16T08:05:09.979Z,23.34
2023-09-16T08:08:02.235Z,25.55
2023-09-16T08:10:54.608Z,25.83
2023-09-16T08:13:47.500Z,28.08
2023-09-16T08:16:40.511Z,30.69
2023-09-16T08:19:33.126Z,32.59
2023-09-16T08:22:25.351Z,34.03
2023-09-16T08:25:17.670Z,35.26
2023-09-16T08:28:10.280Z,36.59
2023-09-16T08:31:02.550Z,37.19
2023-09-16T08:33:56.451Z,37.65
2023-09-16T08:36:47.237Z,38.29
2023-09-16T08:39:39.557Z,39.03
2023-09-16T08:42:39.057Z,40.14
2023-09-16T08:45:34.825Z,41.30
2023-09-16T08:48:32.792Z,42.43
2023-09-16T08:51:11.018Z,43.24
2023-09-16T08:54:06.145Z,43.65
2023-09-16T08:56:58.849Z,43.95
2023-09-16T08:59:53.893Z,44.41
2023-09-16T09:02:47.120Z,44.96
2023-09-16T09:05:40.621Z,44.82
2023-09-16T09:08:34.151Z,44.70
2023-09-16T09:11:27.625Z,45.15
2023-09-16T09:14:16.178Z,45.27
2023-09-16T09:17:11.683Z,45.52
2023-09-16T09:20:04.857Z,46.23
2023-09-16T09:22:58.524Z,45.61
2023-09-16T09:25:50.864Z,45.76
2023-09-16T09:28:45.350Z,46.51
2023-09-16T09:31:37.766Z,47.18
2023-09-16T09:34:32.109Z,46.78
2023-09-16T09:37:24.621Z,47.10
2023-09-16T09:40:17.919Z,47.48
2023-09-16T09:43:10.557Z,47.73
2023-09-16T09:46:03.505Z,48.42
2023-09-16T09:48:56.769Z,48.50
2023-09-16T09:51:49.702Z,48.11
2023-09-16T09:54:41.583Z,48.34
2023-09-16T09:57:17.021Z,48.93
2023-09-16T10:00:11.329Z,49.49
2023-09-16T10:03:04.426Z,49.72
2023-09-16T10:05:39.242Z,50.09
2023-09-16T10:08:32.632Z,50.05
2023-09-16T10:11:28.920Z,50.30
2023-09-16T10:14:09.892Z,50.45
2023-09-16T10:16:44.865Z,49.89
2023-09-16T10:19:35.640Z,49.50
2023-09-16T10:22:28.127Z,49.26
2023-09-16T10:25:21.916Z,49.23
2023-09-16T10:28:14.641Z,48.88
2023-09-16T10:31:07.067Z,48.89
2023-09-16T10:33:48.142Z,49.57
2023-09-16T10:36:40.661Z,49.69
2023-09-16T10:39:34.809Z,49.49
2023-09-16T10:42:29.101Z,49.59
2023-09-16T10:45:22.564Z,49.98
2023-09-16T10:48:14.767Z,50.01
2023-09-16T10:51:13.737Z,49.26
2023-09-16T10:53:52.602Z,49.20
2023-09-16T10:56:46.157Z,49.44
2023-09-16T10:59:39.455Z,49.40
2023-09-16T11:02:43.366Z,48.84
2023-09-16T11:05:39.059Z,49.11
2023-09-16T11:08:33.631Z,49.42
2023-09-16T11:11:26.662Z,48.89
2023-09-16T11:14:19.230Z,48.55
2023-09-16T11:17:16.263Z,48.78
2023-09-16T11:20:23.209Z,48.98
2023-09-16T11:23:15.832Z,48.26
2023-09-16T11:26:08.433Z,48.03
2023-09-16T11:29:00.680Z,48.20
2023-09-16T11:31:55.658Z,48.52
2023-09-16T11:34:47.967Z,48.90
2023-09-16T11:37:40.207Z,49.06
2023-09-16T11:40:34.060Z,49.28
2023-09-16T11:43:26.380Z,49.39
2023-09-16T11:46:18.753Z,49.03
2023-09-16T11:49:11.185Z,48.32
2023-09-16T11:52:03.923Z,48.81
2023-09-16T11:54:57.587Z,48.80
2023-09-16T11:57:50.762Z,48.49
2023-09-16T12:00:42.981Z,48.53
2023-09-16T12:03:36.301Z,48.09
2023-09-16T12:06:29.351Z,47.62
2023-09-16T12:09:23.935Z,47.17
2023-09-16T12:12:16.769Z,46.88
2023-09-16T12:15:08.232Z,46.93
2023-09-16T12:18:00.824Z,46.85
2023-09-16T12:20:54.523Z,46.84
2023-09-16T12:23:49.250Z,46.52
2023-09-16T12:26:41.746Z,46.68
2023-09-16T12:29:35.304Z,46.43
2023-09-16T12:32:27.610Z,45.98
2023-09-16T12:35:19.982Z,45.34
2023-09-16T12:38:12.281Z,44.40
2023-09-16T12:41:05.141Z,42.63
2023-09-16T12:43:58.757Z,41.83
2023-09-16T12:46:51.165Z,42.05
2023-09-16T12:49:44.580Z,41.86
2023-09-16T12:52:27.070Z,40.81
2023-09-16T12:55:19.538Z,39.18
2023-09-16T12:58:12.970Z,37.40
2023-09-16T13:01:05.248Z,36.15
2023-09-16T13:03:57.524Z,35.17
2023-09-16T13:06:50.353Z,34.11
2023-09-16T13:09:42.717Z,33.11
2023-09-16T13:12:36.536Z,32.57
2023-09-16T13:15:29.713Z,32.13
2023-09-16T13:18:22.112Z,31.73
2023-09-16T13:21:14.396Z,31.26
2023-09-16T13:24:07.082Z,30.88
2023-09-16T13:26:59.607Z,30.42
2023-09-16T13:30:10.521Z,30.09
2023-09-16T13:33:02.763Z,29.82
2023-09-16T13:35:54.991Z,29.59
2023-09-16T13:38:48.310Z,29.36
2023-09-16T13:41:27.691Z,29.03
2023-09-16T13:44:19.877Z,28.65
2023-09-16T13:47:14.652Z,28.38
2023-09-16T13:50:08.785Z,28.06
2023-09-16T13:52:43.766Z,27.89
2023-09-16T13:55:36.372Z,27.79
2023-09-16T13:58:29.411Z,27.68
2023-09-16T14:01:25.307Z,27.54
2023-09-16T14:04:17.553Z,27.34
2023-09-16T14:07:09.958Z,27.11
2023-09-16T14:10:02.186Z,26.97
2023-09-16T14:12:54.861Z,26.77
2023-09-16T14:15:47.165Z,26.64
2023-09-16T14:18:39.322Z,26.47
2023-09-16T14:21:31.515Z,26.40
2023-09-16T14:24:24.776Z,26.32
2023-09-16T14:27:16.992Z,26.22
2023-09-16T14:30:10.986Z,26.10
2023-09-16T14:33:03.440Z,26.00
2023-09-16T14:35:55.619Z,25.91
2023-09-16T14:38:49.752Z,25.80
2023-09-16T14:41:42.235Z,25.70
2023-09-16T14:44:37.199Z,25.64
2023-09-16T14:47:29.613Z,25.59
2023-09-16T14:50:21.900Z,25.53
2023-09-16T14:53:14.124Z,25.48
2023-09-16T14:56:06.551Z,25.42
2023-09-16T14:58:58.817Z,25.36
2023-09-16T15:01:51.088Z,25.22
2023-09-16T15:04:43.301Z,25.10
2023-09-16T15:07:35.549Z,24.99
2023-09-16T15:10:27.826Z,24.96
2023-09-16T15:13:20.102Z,24.91
2023-09-16T15:16:12.412Z,24.84
2023-09-16T15:19:04.722Z,24.84
2023-09-16T15:21:57.054Z,24.81
2023-09-16T15:24:49.449Z,24.78
2023-09-16T15:27:41.671Z,24.74
2023-09-16T15:30:33.879Z,24.71
2023-09-16T15:33:26.370Z,24.72
2023-09-16T15:36:18.634Z,24.66
2023-09-16T15:39:10.875Z,24.53
2023-09-16T15:42:03.147Z,24.47
2023-09-16T15:44:38.175Z,24.43
2023-09-16T15:47:30.396Z,24.36
2023-09-16T15:50:23.130Z,24.29
2023-09-16T15:53:15.444Z,24.23
2023-09-16T15:56:07.640Z,24.21
2023-09-16T15:59:04.475Z,24.19
2023-09-16T16:01:56.749Z,24.19
2023-09-16T16:04:45.359Z,24.17
2023-09-16T16:10:30.688Z,24.06
2023-09-16T16:13:22.970Z,23.97
2023-09-16T16:16:15.948Z,23.88
2023-09-16T16:19:10.900Z,23.86
2023-09-16T16:22:04.321Z,23.84
2023-09-16T16:24:56.761Z,23.81
2023-09-16T16:27:28.960Z,23.78
2023-09-16T16:30:21.149Z,23.71
2023-09-16T16:33:13.448Z,23.64
2023-09-16T16:36:06.248Z,23.60
2023-09-16T16:38:58.440Z,23.55
2023-09-16T16:41:50.598Z,23.50
2023-09-16T16:44:42.806Z,23.48
2023-09-16T16:47:35.152Z,23.44
2023-09-16T16:50:27.555Z,23.39
2023-09-16T16:53:19.776Z,23.34
2023-09-16T16:56:11.957Z,23.26
2023-09-16T16:59:07.057Z,23.20
2023-09-16T17:02:06.414Z,23.16
2023-09-16T17:04:58.747Z,23.05
2023-09-16T17:07:51.051Z,22.99
2023-09-16T17:10:43.337Z,22.94
2023-09-16T17:13:36.745Z,22.86
2023-09-16T17:16:29.381Z,22.82
2023-09-16T17:19:21.709Z,22.78
2023-09-16T17:22:14.759Z,22.72
2023-09-16T17:25:08.358Z,22.64
2023-09-16T17:28:00.588Z,22.57
2023-09-16T17:30:53.015Z,22.53
2023-09-16T17:33:45.287Z,22.48
2023-09-16T17:36:37.898Z,22.41
2023-09-16T17:39:31.425Z,22.34
2023-09-16T17:42:23.704Z,22.24
2023-09-16T17:45:15.956Z,22.13
2023-09-16T17:48:08.750Z,22.06
2023-09-16T17:51:01.132Z,22.03
2023-09-16T17:53:53.417Z,21.96
2023-09-16T17:56:45.818Z,21.87
2023-09-16T17:59:38.044Z,21.83
2023-09-16T18:02:30.441Z,21.81
2023-09-16T18:05:22.956Z,21.81
2023-09-16T18:08:15.194Z,21.80
2023-09-16T18:10:57.563Z,21.76
2023-09-16T18:13:49.890Z,21.73
2023-09-16T18:16:42.407Z,21.67
2023-09-16T18:19:34.771Z,21.63
2023-09-16T18:22:27.143Z,21.58
2023-09-16T18:25:19.683Z,21.51
2023-09-16T18:28:11.914Z,21.44
2023-09-16T18:31:04.801Z,21.39
2023-09-16T18:33:57.108Z,21.36
2023-09-16T18:36:49.380Z,21.33
2023-09-16T18:39:42.119Z,21.32
2023-09-16T18:42:34.916Z,21.31
2023-09-16T18:45:27.080Z,21.27
2023-09-16T18:48:20.232Z,21.26
2023-09-16T18:51:12.462Z,21.23
2023-09-16T18:54:05.160Z,21.19
2023-09-16T18:56:57.581Z,21.17
2023-09-16T18:59:49.754Z,21.16
2023-09-16T19:02:42.081Z,21.14
2023-09-16T19:05:36.404Z,21.10
2023-09-16T19:08:11.563Z,21.06
2023-09-16T19:11:04.631Z,21.00
2023-09-16T19:13:57.627Z,20.93
2023-09-16T19:16:33.537Z,20.87
2023-09-16T19:19:25.882Z,20.84
2023-09-16T19:22:19.150Z,20.83
2023-09-16T19:25:12.174Z,20.80
2023-09-16T19:28:04.645Z,20.77
2023-09-16T19:30:57.047Z,20.73
2023-09-16T19:33:49.527Z,20.68
2023-09-16T19:36:41.920Z,20.63
2023-09-16T19:39:34.105Z,20.56
2023-09-16T19:42:26.489Z,20.50
2023-09-16T19:45:18.719Z,20.47
2023-09-16T19:48:11.073Z,20.44
2023-09-16T19:51:04.507Z,20.42
2023-09-16T19:53:56.760Z,20.38
2023-09-16T19:57:39.177Z,20.34
2023-09-16T20:00:35.819Z,20.38
2023-09-16T20:03:26.556Z,20.36
2023-09-16T20:06:19.757Z,20.25
2023-09-16T20:09:11.970Z,20.24
2023-09-16T20:12:04.360Z,20.23
2023-09-16T20:14:56.711Z,20.24
2023-09-16T20:17:49.158Z,20.24
2023-09-16T20:20:41.794Z,20.21
2023-09-16T20:23:34.004Z,20.19
2023-09-16T20:26:26.656Z,20.16
2023-09-16T20:29:19.201Z,20.11
2023-09-16T20:32:12.409Z,20.04
2023-09-16T20:35:04.805Z,19.99
2023-09-16T20:37:59.114Z,19.95
2023-09-16T20:40:49.824Z,19.91
2023-09-16T20:43:42.065Z,19.83
2023-09-16T20:46:34.390Z,19.78
2023-09-16T20:49:26.870Z,19.72
2023-09-16T20:52:19.090Z,19.66
2023-09-16T20:55:12.084Z,19.60
2023-09-16T20:58:04.953Z,19.56
2023-09-16T21:00:58.387Z,19.59
2023-09-16T21:03:50.986Z,19.59
2023-09-16T21:06:45.083Z,19.58
2023-09-16T21:09:37.302Z,19.56
2023-09-16T21:12:29.761Z,19.54
2023-09-16T21:15:22.384Z,19.52
2023-09-16T21:18:15.127Z,19.48
2023-09-16T21:21:07.614Z,19.42
2023-09-16T21:23:59.873Z,19.37
2023-09-16T21:26:52.965Z,19.33
2023-09-16T21:29:45.223Z,19.29
2023-09-16T21:32:37.710Z,19.27
2023-09-16T21:35:30.262Z,19.26
2023-09-16T21:38:22.580Z,19.22
2023-09-16T21:41:14.840Z,19.17
2023-09-16T21:44:07.532Z,19.14
2023-09-16T21:46:59.836Z,19.13
2023-09-16T21:49:52.065Z,19.16
2023-09-16T21:52:45.749Z,19.15
2023-09-16T21:55:38.098Z,19.10
2023-09-16T21:58:30.430Z,19.10
2023-09-16T22:01:22.926Z,19.08
2023-09-16T22:04:15.336Z,19.06
2023-09-16T22:07:07.739Z,19.03
2023-09-16T22:09:59.937Z,19.02
2023-09-16T22:12:52.655Z,18.97
2023-09-16T22:15:44.978Z,18.94
2023-09-16T22:18:37.179Z,18.91
2023-09-16T22:21:29.367Z,18.95
2023-09-16T22:24:21.970Z,18.99
2023-09-16T22:27:14.200Z,18.96
2023-09-16T22:30:10.819Z,18.92
2023-09-16T22:33:03.495Z,18.95
2023-09-16T22:35:55.806Z,18.94
2023-09-16T22:38:48.272Z,18.95
2023-09-16T22:41:40.827Z,18.95
2023-09-16T22:44:33.036Z,18.93
2023-09-16T22:47:25.304Z,18.87
2023-09-16T22:50:17.676Z,18.81
2023-09-16T22:53:09.975Z,18.76
2023-09-16T22:56:02.349Z,18.78
2023-09-16T22:58:54.808Z,18.77
2023-09-16T23:01:47.082Z,18.74
2023-09-16T23:04:39.328Z,18.71
2023-09-16T23:07:31.516Z,18.68
2023-09-16T23:10:12.929Z,18.67
2023-09-16T23:13:05.294Z,18.62
2023-09-16T23:15:41.709Z,18.60
2023-09-16T23:18:33.896Z,18.56
2023-09-16T23:21:26.054Z,18.53
2023-09-16T23:24:18.242Z,18.50
2023-09-16T23:27:10.496Z,18.49
2023-09-16T23:30:03.757Z,18.52
2023-09-16T23:32:55.960Z,18.47
2023-09-16T23:35:48.141Z,18.45
2023-09-16T23:38:40.321Z,18.41
2023-09-16T23:41:32.640Z,18.41
2023-09-16T23:44:24.796Z,18.43
2023-09-16T23:47:17.061Z,18.41
2023-09-16T23:50:11.581Z,18.40
2023-09-16T23:53:04.326Z,18.39
2023-09-16T23:55:56.548Z,18.38
2023-09-16T23:58:48.823Z,18.40
